Portada
METAR-TAF:

METAR-TAF

Aeropuertos :

Aeropuerto Internacional de Harbin

Harbin, China

latitud: 45-45N, longitud: 126-46E, altitud: 143 m

Observación

El informe se hizo hace 12 minutos, a las 07:00 UTC
Viento 14 kt del norte-noroeste, variando entre oeste-noroeste y norte
Temperatura 13°C
Humedad 54%
Presión 1008 hPa
Visibilidad 10 km o más
Cielo nuboso a una altura de 4000 ft

METAR: ZYHB 160700Z 33007MPS 300V360 9999 BKN040 13/04 Q1008 NOSIG

Hora: 15:12 (07:12 UTC)

Pronóstico

El informe se hizo hace 4 horas y 5 minutos, a las 03:07 UTC
Pronóstico válido del 16 a las 06 UTC al 17 a las 06 UTC
Viento 8 kt del noroeste
Visibilidad: 6000 m
Nubes dispersas a una altura de 3300 ft

TAF: ZYHB 160307Z 1606/1706 32004MPS 6000 SCT033 TX13/1606Z TN01/1621Z

Observaciones y pronósticos meteorológicos de más de 4000 aeropuertos (mensajes METAR y TAF).

Los puntos amarillos y rojos representan las estaciones disponibles.

Ponga el ratón en el punto deseado para ver el nombre de la estación.

Haga clic para ver las observaciones y los pronósticos meteorológicos.

Para cambiar el mapa : haga clic en los botones verdes con una cruz de color negro para hacer un zoom, en el botón verde con un guión para alejar o en las flechas verdes para mapas adyacentes.


METAR-TAF: